Terminal Aerodrome Forecast
Issued by NWS

Home | Current Version | Previous Version | Graphics & Text | Print | Product List | Glossary On
Versions: 1 2 3 4 5 6 7 8 9 10 11 12 13 14 15 16 17 18 19 20 21 22 23 24 25 26 27
000
FTUS43 KBIS 240524
TAFJMS
TAF
KJMS 240524Z 2406/2506 25015KT P6SM SCT250
     FM241100 27017G27KT P6SM BKN090
     FM241400 29023G35KT P6SM BKN050
     FM250000 29010KT P6SM FEW250=

USA.gov is the U.S. government's official web portal to all federal, state and local government web resources and services.